createdAt,value
2017-09-17T00:00:20.445Z,0
2017-09-17T00:01:28.533Z,0
2017-09-17T00:02:36.704Z,0
2017-09-17T00:03:44.725Z,0
2017-09-17T00:04:52.814Z,0
2017-09-17T00:06:00.902Z,0
2017-09-17T00:07:08.991Z,0
2017-09-17T00:08:17.081Z,0
2017-09-17T00:09:25.163Z,0
2017-09-17T00:10:33.251Z,0
2017-09-17T00:11:41.335Z,0
2017-09-17T00:12:49.421Z,0
2017-09-17T00:13:57.528Z,0
2017-09-17T00:15:05.597Z,0
2017-09-17T00:16:13.691Z,0
2017-09-17T00:17:21.941Z,0
2017-09-17T00:18:29.863Z,0
2017-09-17T00:19:37.951Z,0
2017-09-17T00:20:46.038Z,0
2017-09-17T00:21:54.139Z,0
2017-09-17T00:23:02.219Z,0
2017-09-17T00:24:10.307Z,0
2017-09-17T00:25:18.395Z,0
2017-09-17T00:26:26.482Z,0
2017-09-17T00:27:34.598Z,0
2017-09-17T00:28:42.667Z,0
2017-09-17T00:29:50.777Z,0
2017-09-17T00:30:58.837Z,0
2017-09-17T00:32:06.926Z,0
2017-09-17T00:33:15.013Z,0
2017-09-17T00:34:23.101Z,0
2017-09-17T00:35:31.187Z,0
2017-09-17T00:36:39.274Z,0
2017-09-17T00:37:47.360Z,0
2017-09-17T00:38:55.448Z,0
2017-09-17T00:40:03.532Z,0
2017-09-17T00:41:11.635Z,0
2017-09-17T00:42:19.711Z,0
2017-09-17T00:43:28.065Z,0
2017-09-17T00:44:35.885Z,0
2017-09-17T00:45:43.975Z,0
2017-09-17T00:46:52.054Z,0
2017-09-17T00:48:00.141Z,0
2017-09-17T00:49:08.232Z,0
2017-09-17T00:50:16.317Z,0
2017-09-17T00:51:24.405Z,0
2017-09-17T00:52:32.491Z,0
2017-09-17T00:53:40.578Z,0
2017-09-17T00:54:48.660Z,0
2017-09-17T00:55:56.755Z,0
2017-09-17T00:57:04.837Z,0
2017-09-17T00:58:12.924Z,0
2017-09-17T00:59:21.011Z,0
2017-09-17T01:00:29.108Z,0
2017-09-17T01:01:37.187Z,0
2017-09-17T01:02:45.272Z,0
2017-09-17T01:03:53.358Z,0
2017-09-17T01:05:01.444Z,0
2017-09-17T01:06:09.549Z,0
2017-09-17T01:07:17.637Z,0
2017-09-17T01:08:25.723Z,0
2017-09-17T01:09:33.854Z,0
2017-09-17T01:10:41.896Z,0
2017-09-17T01:11:49.985Z,0
2017-09-17T01:12:58.069Z,0
2017-09-17T01:14:06.157Z,0
2017-09-17T01:15:14.245Z,0
2017-09-17T01:16:22.329Z,0
2017-09-17T01:17:30.418Z,0
2017-09-17T01:18:38.516Z,0
2017-09-17T01:19:46.598Z,0
2017-09-17T01:20:54.696Z,0
2017-09-17T01:22:02.763Z,0
2017-09-17T01:23:10.850Z,0
2017-09-17T01:24:18.939Z,0
2017-09-17T01:25:27.024Z,0
2017-09-17T01:26:35.111Z,0
2017-09-17T01:27:43.209Z,0
2017-09-17T01:28:51.295Z,0
2017-09-17T01:29:59.380Z,0
2017-09-17T01:31:07.467Z,0
2017-09-17T01:32:15.554Z,0
2017-09-17T01:33:23.648Z,0
2017-09-17T01:34:31.728Z,0
2017-09-17T01:35:39.816Z,0
2017-09-17T01:36:47.909Z,0
2017-09-17T01:37:55.988Z,0
2017-09-17T01:39:04.074Z,0
2017-09-17T01:40:12.164Z,0
2017-09-17T01:41:20.248Z,0
2017-09-17T01:42:28.334Z,0
2017-09-17T01:43:36.420Z,0
2017-09-17T01:44:44.511Z,0
2017-09-17T01:45:52.601Z,0
2017-09-17T01:47:00.680Z,0
2017-09-17T01:48:08.766Z,0
2017-09-17T01:49:16.857Z,0
2017-09-17T01:50:24.939Z,0
2017-09-17T01:51:33.026Z,0
2017-09-17T01:52:41.115Z,0
2017-09-17T01:53:49.200Z,0
2017-09-17T01:54:57.286Z,0
2017-09-17T01:56:05.428Z,0
2017-09-17T01:57:13.460Z,0
2017-09-17T01:58:21.545Z,0
2017-09-17T01:59:29.649Z,0
2017-09-17T02:00:37.718Z,0
2017-09-17T02:01:45.806Z,0
2017-09-17T02:02:53.916Z,0
2017-09-17T02:04:02.010Z,0
2017-09-17T02:05:10.090Z,0
2017-09-17T02:06:18.180Z,0
2017-09-17T02:07:26.265Z,0
2017-09-17T02:08:34.351Z,0
2017-09-17T02:09:42.439Z,0
2017-09-17T02:10:50.538Z,0
2017-09-17T02:11:58.639Z,0
2017-09-17T02:13:06.706Z,0
2017-09-17T02:14:14.810Z,0
2017-09-17T02:15:22.885Z,0
2017-09-17T02:16:30.990Z,0
2017-09-17T02:17:39.053Z,0
2017-09-17T02:18:47.141Z,0
2017-09-17T02:19:55.227Z,0
2017-09-17T02:21:03.312Z,0
2017-09-17T02:22:11.399Z,0
2017-09-17T02:23:19.486Z,0
2017-09-17T02:24:27.575Z,0
2017-09-17T02:25:35.658Z,0
2017-09-17T02:26:43.746Z,0
2017-09-17T02:27:51.834Z,0
2017-09-17T02:28:59.917Z,0
2017-09-17T02:30:08.002Z,0
2017-09-17T02:31:16.088Z,0
2017-09-17T02:32:24.177Z,0
2017-09-17T02:33:32.350Z,0
2017-09-17T02:34:40.434Z,0
2017-09-17T02:35:48.580Z,0
2017-09-17T02:36:56.612Z,0
2017-09-17T02:38:04.695Z,0
2017-09-17T02:39:12.780Z,0
2017-09-17T02:40:20.874Z,0
2017-09-17T02:41:28.957Z,0
2017-09-17T02:42:37.038Z,0
2017-09-17T02:43:45.125Z,0
2017-09-17T02:44:53.212Z,0
2017-09-17T02:46:01.547Z,0
2017-09-17T02:47:09.625Z,0
2017-09-17T02:48:17.721Z,0
2017-09-17T02:49:25.824Z,0
2017-09-17T02:50:33.913Z,0
2017-09-17T02:51:41.978Z,0
2017-09-17T02:52:50.064Z,0
2017-09-17T02:53:58.150Z,0
2017-09-17T02:55:06.242Z,0
2017-09-17T02:56:14.321Z,0
2017-09-17T02:57:22.407Z,0
2017-09-17T02:58:30.494Z,0
2017-09-17T02:59:38.580Z,0
2017-09-17T03:00:46.701Z,0
2017-09-17T03:01:54.753Z,0
2017-09-17T03:03:02.838Z,0
2017-09-17T03:04:10.923Z,0
2017-09-17T03:05:19.007Z,0
2017-09-17T03:06:27.097Z,0
2017-09-17T03:07:35.190Z,0
2017-09-17T03:08:43.280Z,0
2017-09-17T03:09:51.361Z,0
2017-09-17T03:10:59.446Z,0
2017-09-17T03:12:07.531Z,0
2017-09-17T03:13:15.621Z,0
2017-09-17T03:14:23.711Z,0
2017-09-17T03:15:31.797Z,0
2017-09-17T03:16:39.878Z,0
2017-09-17T03:17:47.965Z,0
2017-09-17T03:18:56.053Z,0
2017-09-17T03:20:04.134Z,0
2017-09-17T03:21:12.221Z,0
2017-09-17T03:22:20.308Z,0
2017-09-17T03:23:28.524Z,0
2017-09-17T03:24:36.612Z,0
2017-09-17T03:25:44.699Z,0
2017-09-17T03:26:52.790Z,0
2017-09-17T03:28:00.871Z,0
2017-09-17T03:29:08.955Z,0
2017-09-17T03:30:17.041Z,0
2017-09-17T03:31:25.127Z,0
2017-09-17T03:32:33.215Z,0
2017-09-17T03:33:41.298Z,0
2017-09-17T03:34:49.385Z,0
2017-09-17T03:35:57.471Z,0
2017-09-17T03:37:05.563Z,0
2017-09-17T03:38:13.643Z,0
2017-09-17T03:39:21.729Z,0
2017-09-17T03:40:29.818Z,0
2017-09-17T03:41:37.901Z,0
2017-09-17T03:42:45.988Z,0
2017-09-17T03:43:54.074Z,0
2017-09-17T03:45:02.160Z,0
2017-09-17T03:46:10.247Z,0
2017-09-17T03:47:18.326Z,0
2017-09-17T03:48:26.416Z,0
2017-09-17T03:49:34.509Z,0
2017-09-17T03:50:42.590Z,0
2017-09-17T03:51:50.679Z,0
2017-09-17T03:52:58.780Z,0
2017-09-17T03:54:06.845Z,0
2017-09-17T03:55:14.931Z,0
2017-09-17T03:56:23.018Z,0
2017-09-17T03:57:31.103Z,0
2017-09-17T03:58:39.189Z,0
2017-09-17T03:59:47.275Z,0
2017-09-17T04:00:55.361Z,0
2017-09-17T04:02:03.446Z,0
2017-09-17T04:03:11.531Z,0
2017-09-17T04:04:19.617Z,0
2017-09-17T04:05:27.709Z,0
2017-09-17T04:06:35.790Z,0
2017-09-17T04:07:43.878Z,0
2017-09-17T04:08:51.968Z,0
2017-09-17T04:10:00.060Z,0
2017-09-17T04:11:08.142Z,0
2017-09-17T04:12:16.228Z,0
2017-09-17T04:13:24.314Z,0
2017-09-17T04:14:32.400Z,0
2017-09-17T04:15:40.490Z,0
2017-09-17T04:16:48.589Z,0
2017-09-17T04:17:56.673Z,0
2017-09-17T04:19:04.764Z,0
2017-09-17T04:20:12.868Z,0
2017-09-17T04:21:20.934Z,0
2017-09-17T04:22:29.078Z,0
2017-09-17T04:23:37.107Z,0
2017-09-17T04:24:45.195Z,0
2017-09-17T04:25:53.278Z,0
2017-09-17T04:27:01.364Z,0
2017-09-17T04:28:09.455Z,0
2017-09-17T04:29:17.534Z,0
2017-09-17T04:30:25.622Z,0
2017-09-17T04:31:33.711Z,0
2017-09-17T04:32:41.790Z,0
2017-09-17T04:33:49.876Z,0
2017-09-17T04:34:57.988Z,0
2017-09-17T04:36:06.056Z,0
2017-09-17T04:37:14.141Z,0
2017-09-17T04:38:22.225Z,0
2017-09-17T04:39:30.312Z,0
2017-09-17T04:40:38.396Z,0
2017-09-17T04:41:46.481Z,0
2017-09-17T04:42:54.586Z,0
2017-09-17T04:44:02.654Z,0
2017-09-17T04:45:10.743Z,0
2017-09-17T04:46:18.836Z,0
2017-09-17T04:47:26.911Z,0
2017-09-17T04:48:34.995Z,0
2017-09-17T04:49:43.079Z,0
2017-09-17T04:50:51.190Z,0
2017-09-17T04:51:59.273Z,0
2017-09-17T04:53:07.360Z,0
2017-09-17T04:54:15.446Z,0
2017-09-17T04:55:23.534Z,0
2017-09-17T04:56:31.623Z,0
2017-09-17T04:57:39.714Z,0
2017-09-17T04:58:47.800Z,0
2017-09-17T04:59:55.874Z,0
2017-09-17T05:01:03.959Z,0
2017-09-17T05:02:12.042Z,0
2017-09-17T05:03:20.140Z,0
2017-09-17T05:04:28.215Z,0
2017-09-17T05:05:36.299Z,0
2017-09-17T05:06:44.385Z,0
2017-09-17T05:07:52.473Z,0
2017-09-17T05:09:00.579Z,0
2017-09-17T05:10:08.645Z,0
2017-09-17T05:11:16.729Z,0
2017-09-17T05:12:24.833Z,0
2017-09-17T05:13:33.010Z,0
2017-09-17T05:14:41.094Z,0
2017-09-17T05:15:49.180Z,0
2017-09-17T05:16:57.266Z,0
2017-09-17T05:18:05.359Z,0
2017-09-17T05:19:13.435Z,0
2017-09-17T05:20:21.541Z,0
2017-09-17T05:21:29.610Z,0
2017-09-17T05:22:37.694Z,4
2017-09-17T05:23:45.778Z,4
2017-09-17T05:24:53.861Z,0
2017-09-17T05:26:01.946Z,0
2017-09-17T05:27:10.034Z,0
2017-09-17T05:28:18.120Z,0
2017-09-17T05:29:26.207Z,0
2017-09-17T05:30:34.291Z,0
2017-09-17T05:31:42.404Z,0
2017-09-17T05:32:51.009Z,0
2017-09-17T05:33:58.558Z,0
2017-09-17T05:35:06.658Z,4
2017-09-17T05:36:14.724Z,0
2017-09-17T05:37:22.802Z,0
2017-09-17T05:38:30.888Z,0
2017-09-17T05:39:38.976Z,0
2017-09-17T05:40:47.060Z,4
2017-09-17T05:41:55.148Z,4
2017-09-17T05:43:03.231Z,0
2017-09-17T05:44:11.315Z,4
2017-09-17T05:45:19.398Z,0
2017-09-17T05:46:27.728Z,0
2017-09-17T05:47:35.830Z,4
2017-09-17T05:48:43.657Z,0
2017-09-17T05:49:52.346Z,4
2017-09-17T05:50:59.850Z,4
2017-09-17T05:52:07.930Z,4
2017-09-17T05:53:16.016Z,4
2017-09-17T05:54:24.103Z,4
2017-09-17T05:55:32.247Z,4
2017-09-17T05:56:40.359Z,4
2017-09-17T05:57:48.424Z,4
2017-09-17T05:58:56.633Z,4
2017-09-17T06:00:04.582Z,4
2017-09-17T06:01:12.614Z,4
2017-09-17T06:02:20.802Z,4
2017-09-17T06:03:28.841Z,4
2017-09-17T06:04:36.906Z,4
2017-09-17T06:05:45.045Z,4
2017-09-17T06:06:53.041Z,0
2017-09-17T06:08:01.204Z,0
2017-09-17T06:09:09.285Z,0
2017-09-17T06:10:17.296Z,4
2017-09-17T06:11:25.517Z,0
2017-09-17T06:12:33.469Z,0
2017-09-17T06:13:41.558Z,0
2017-09-17T06:14:49.645Z,4
2017-09-17T06:15:57.727Z,0
2017-09-17T06:17:05.820Z,4
2017-09-17T06:18:13.911Z,4
2017-09-17T06:19:22.056Z,4
2017-09-17T06:20:30.116Z,4
2017-09-17T06:21:38.262Z,4
2017-09-17T06:22:46.239Z,4
2017-09-17T06:23:54.774Z,4
2017-09-17T06:25:02.483Z,8
2017-09-17T06:26:10.499Z,4
2017-09-17T06:27:18.609Z,4
2017-09-17T06:28:26.686Z,4
2017-09-17T06:29:34.755Z,4
2017-09-17T06:30:42.840Z,4
2017-09-17T06:31:50.926Z,4
2017-09-17T06:32:59.010Z,8
2017-09-17T06:34:07.096Z,4
2017-09-17T06:35:15.454Z,4
2017-09-17T06:36:23.928Z,4
2017-09-17T06:37:32.050Z,4
2017-09-17T06:38:39.499Z,4
2017-09-17T06:39:47.761Z,4
2017-09-17T06:40:56.167Z,8
2017-09-17T06:42:03.694Z,12
2017-09-17T06:43:11.789Z,4
2017-09-17T06:44:20.354Z,4
2017-09-17T06:45:27.950Z,4
2017-09-17T06:46:36.035Z,8
2017-09-17T06:47:44.139Z,4
2017-09-17T06:48:52.206Z,4
2017-09-17T06:50:00.297Z,4
2017-09-17T06:51:08.438Z,8
2017-09-17T06:52:16.467Z,8
2017-09-17T06:53:24.552Z,4
2017-09-17T06:54:32.639Z,8
2017-09-17T06:55:41.395Z,8
2017-09-17T06:56:48.813Z,4
2017-09-17T06:57:56.898Z,8
2017-09-17T06:59:05.028Z,4
2017-09-17T07:00:13.133Z,8
2017-09-17T07:01:21.200Z,8
2017-09-17T07:02:29.288Z,4
2017-09-17T07:03:37.717Z,8
2017-09-17T07:04:45.703Z,8
2017-09-17T07:05:55.032Z,4
2017-09-17T07:07:01.627Z,8
2017-09-17T07:08:09.782Z,8
2017-09-17T07:09:17.884Z,8
2017-09-17T07:10:25.901Z,4
2017-09-17T07:11:34.036Z,8
2017-09-17T07:12:42.054Z,4
2017-09-17T07:13:50.140Z,4
2017-09-17T07:14:58.224Z,4
2017-09-17T07:16:06.405Z,4
2017-09-17T07:17:14.425Z,4
2017-09-17T07:18:22.532Z,8
2017-09-17T07:19:30.667Z,8
2017-09-17T07:20:38.727Z,8
2017-09-17T07:21:46.756Z,8
2017-09-17T07:24:02.906Z,4
2017-09-17T07:25:10.992Z,8
2017-09-17T07:26:19.090Z,8
2017-09-17T07:27:27.167Z,8
2017-09-17T07:28:35.743Z,8
2017-09-17T07:29:44.008Z,8
2017-09-17T07:30:51.579Z,8
2017-09-17T07:31:59.532Z,8
2017-09-17T07:33:07.616Z,12
2017-09-17T07:34:15.700Z,8
2017-09-17T07:35:23.888Z,8
2017-09-17T07:36:31.915Z,12
2017-09-17T07:37:40.221Z,12
2017-09-17T07:38:48.267Z,12
2017-09-17T07:39:56.172Z,12
2017-09-17T07:41:04.252Z,12
2017-09-17T07:42:13.024Z,12
2017-09-17T07:43:20.890Z,12
2017-09-17T07:44:28.504Z,12
2017-09-17T07:45:36.597Z,8
2017-09-17T07:46:44.675Z,8
2017-09-17T07:47:52.760Z,8
2017-09-17T07:49:00.846Z,12
2017-09-17T07:50:08.967Z,12
2017-09-17T07:51:17.427Z,12
2017-09-17T07:52:26.310Z,12
2017-09-17T07:53:33.540Z,12
2017-09-17T07:54:41.281Z,12
2017-09-17T07:55:49.369Z,12
2017-09-17T07:56:57.456Z,12
2017-09-17T07:58:05.548Z,8
2017-09-17T07:59:13.633Z,8
2017-09-17T08:00:21.739Z,12
2017-09-17T08:01:29.805Z,12
2017-09-17T08:02:37.890Z,12
2017-09-17T08:03:45.978Z,12
2017-09-17T08:04:54.058Z,12
2017-09-17T08:06:02.177Z,12
2017-09-17T08:07:10.230Z,12
2017-09-17T08:08:18.313Z,8
2017-09-17T08:09:26.405Z,12
2017-09-17T08:10:34.545Z,12
2017-09-17T08:11:42.620Z,12
2017-09-17T08:12:50.659Z,12
2017-09-17T08:13:58.742Z,12
2017-09-17T08:15:06.891Z,12
2017-09-17T08:16:14.977Z,8
2017-09-17T08:17:23.059Z,12
2017-09-17T08:18:31.147Z,12
2017-09-17T08:19:39.232Z,12
2017-09-17T08:20:47.317Z,12
2017-09-17T08:21:55.406Z,12
2017-09-17T08:23:03.488Z,12
2017-09-17T08:24:11.593Z,12
2017-09-17T08:25:19.665Z,12
2017-09-17T08:26:27.748Z,12
2017-09-17T08:27:35.830Z,16
2017-09-17T08:28:43.913Z,16
2017-09-17T08:29:52.003Z,12
2017-09-17T08:31:00.085Z,12
2017-09-17T08:32:08.169Z,12
2017-09-17T08:33:16.253Z,16
2017-09-17T08:34:24.338Z,12
2017-09-17T08:35:32.425Z,16
2017-09-17T08:36:40.517Z,16
2017-09-17T08:37:48.745Z,16
2017-09-17T08:38:56.684Z,16
2017-09-17T08:40:04.767Z,16
2017-09-17T08:41:12.857Z,12
2017-09-17T08:42:20.942Z,12
2017-09-17T08:43:29.028Z,12
2017-09-17T08:44:37.113Z,12
2017-09-17T08:45:45.202Z,12
2017-09-17T08:46:53.292Z,12
2017-09-17T08:48:01.370Z,12
2017-09-17T08:49:09.456Z,16
2017-09-17T08:50:17.544Z,8
2017-09-17T08:51:25.649Z,8
2017-09-17T08:52:33.752Z,12
2017-09-17T08:53:41.821Z,12
2017-09-17T08:54:49.905Z,8
2017-09-17T08:55:57.992Z,8
2017-09-17T08:57:06.078Z,8
2017-09-17T08:58:14.166Z,8
2017-09-17T08:59:22.248Z,8
2017-09-17T09:00:30.332Z,8
2017-09-17T09:01:38.417Z,12
2017-09-17T09:02:46.504Z,12
2017-09-17T09:03:54.585Z,12
2017-09-17T09:05:02.674Z,12
2017-09-17T09:06:10.758Z,12
2017-09-17T09:07:18.844Z,16
2017-09-17T09:08:26.928Z,12
2017-09-17T09:09:35.014Z,16
2017-09-17T09:10:43.099Z,12
2017-09-17T09:11:51.188Z,12
2017-09-17T09:12:59.271Z,16
2017-09-17T09:14:07.355Z,12
2017-09-17T09:15:15.586Z,12
2017-09-17T09:16:23.674Z,12
2017-09-17T09:17:31.757Z,12
2017-09-17T09:18:39.844Z,8
2017-09-17T09:19:47.926Z,12
2017-09-17T09:20:56.011Z,12
2017-09-17T09:22:04.097Z,12
2017-09-17T09:23:12.182Z,12
2017-09-17T09:24:20.268Z,12
2017-09-17T09:25:28.353Z,12
2017-09-17T09:26:36.438Z,12
2017-09-17T09:27:44.525Z,8
2017-09-17T09:28:52.606Z,12
2017-09-17T09:30:00.699Z,12
2017-09-17T09:31:08.778Z,12
2017-09-17T09:32:16.862Z,12
2017-09-17T09:33:24.948Z,12
2017-09-17T09:34:33.086Z,12
2017-09-17T09:35:41.706Z,16
2017-09-17T09:36:49.730Z,12
2017-09-17T09:37:57.821Z,12
2017-09-17T09:39:05.903Z,12
2017-09-17T09:40:13.988Z,12
2017-09-17T09:41:22.073Z,12
2017-09-17T09:42:30.160Z,12
2017-09-17T09:43:38.244Z,12
2017-09-17T09:44:46.329Z,12
2017-09-17T09:45:54.415Z,12
2017-09-17T09:47:02.499Z,12
2017-09-17T09:48:10.585Z,12
2017-09-17T09:49:18.678Z,12
2017-09-17T09:50:26.758Z,12
2017-09-17T09:51:34.864Z,12
2017-09-17T09:52:42.929Z,12
2017-09-17T09:53:51.077Z,12
2017-09-17T09:54:59.097Z,12
2017-09-17T09:56:07.188Z,16
2017-09-17T09:57:15.266Z,16
2017-09-17T09:58:23.350Z,16
2017-09-17T09:59:31.435Z,16
2017-09-17T10:00:39.522Z,12
2017-09-17T10:01:47.606Z,16
2017-09-17T10:02:55.740Z,12
2017-09-17T10:04:03.777Z,16
2017-09-17T10:05:11.859Z,16
2017-09-17T10:06:19.948Z,20
2017-09-17T10:07:28.032Z,16
2017-09-17T10:08:36.115Z,16
2017-09-17T10:09:44.201Z,20
2017-09-17T10:10:52.285Z,20
2017-09-17T10:12:00.455Z,16
2017-09-17T10:13:08.453Z,16
2017-09-17T10:14:16.544Z,16
2017-09-17T10:15:24.641Z,16
2017-09-17T10:16:32.711Z,16
2017-09-17T10:17:40.796Z,12
2017-09-17T10:18:48.881Z,12
2017-09-17T10:19:56.971Z,16
2017-09-17T10:21:05.054Z,12
2017-09-17T10:22:13.139Z,12
2017-09-17T10:23:21.223Z,12
2017-09-17T10:24:29.308Z,16
2017-09-17T10:25:37.396Z,20
2017-09-17T10:26:45.477Z,20
2017-09-17T10:27:53.565Z,20
2017-09-17T10:29:01.654Z,12
2017-09-17T10:30:09.742Z,12
2017-09-17T10:31:17.825Z,8
2017-09-17T10:32:25.909Z,12
2017-09-17T10:33:33.996Z,12
2017-09-17T10:34:42.078Z,12
2017-09-17T10:35:50.164Z,12
2017-09-17T10:36:58.250Z,16
2017-09-17T10:38:06.336Z,16
2017-09-17T10:39:14.430Z,16
2017-09-17T10:40:22.516Z,20
2017-09-17T10:41:30.609Z,16
2017-09-17T10:42:38.695Z,16
2017-09-17T10:43:46.779Z,16
2017-09-17T10:44:54.865Z,16
2017-09-17T10:46:02.949Z,16
2017-09-17T10:47:11.032Z,16
2017-09-17T10:48:19.119Z,12
2017-09-17T10:49:27.204Z,12
2017-09-17T10:50:35.290Z,12
2017-09-17T10:51:43.374Z,16
2017-09-17T10:52:51.461Z,24
2017-09-17T10:53:59.544Z,20
2017-09-17T10:55:07.630Z,24
2017-09-17T10:56:15.717Z,28
2017-09-17T10:57:23.803Z,28
2017-09-17T10:58:31.886Z,28
2017-09-17T10:59:40.083Z,28
2017-09-17T11:00:48.166Z,28
2017-09-17T11:01:56.251Z,20
2017-09-17T11:03:04.335Z,24
2017-09-17T11:04:12.420Z,20
2017-09-17T11:05:20.510Z,24
2017-09-17T11:06:28.595Z,24
2017-09-17T11:07:36.682Z,24
2017-09-17T11:08:44.774Z,24
2017-09-17T11:09:52.850Z,16
2017-09-17T11:11:00.930Z,24
2017-09-17T11:12:09.026Z,28
2017-09-17T11:13:17.111Z,20
2017-09-17T11:14:25.197Z,20
2017-09-17T11:15:33.283Z,20
2017-09-17T11:16:41.369Z,24
2017-09-17T11:17:49.454Z,20
2017-09-17T11:18:57.554Z,20
2017-09-17T11:20:05.624Z,20
2017-09-17T11:21:13.708Z,20
2017-09-17T11:22:21.795Z,20
2017-09-17T11:23:29.881Z,20
2017-09-17T11:24:37.966Z,24
2017-09-17T11:25:46.054Z,24
2017-09-17T11:26:54.136Z,20
2017-09-17T11:28:02.221Z,20
2017-09-17T11:29:10.412Z,20
2017-09-17T11:30:19.118Z,20
2017-09-17T11:31:26.591Z,20
2017-09-17T11:32:35.031Z,20
2017-09-17T11:33:43.120Z,20
2017-09-17T11:34:51.201Z,20
2017-09-17T11:35:59.292Z,20
2017-09-17T11:37:07.376Z,16
2017-09-17T11:38:15.464Z,16
2017-09-17T11:39:23.539Z,20
2017-09-17T11:40:31.631Z,20
2017-09-17T11:41:39.719Z,20
2017-09-17T11:42:47.802Z,20
2017-09-17T11:43:55.887Z,20
2017-09-17T11:45:03.972Z,16
2017-09-17T11:46:12.058Z,16
2017-09-17T11:47:20.142Z,16
2017-09-17T11:48:28.227Z,20
2017-09-17T11:49:36.312Z,16
2017-09-17T11:50:44.398Z,16
2017-09-17T11:51:52.485Z,20
2017-09-17T11:53:00.571Z,16
2017-09-17T11:54:08.655Z,20
2017-09-17T11:55:16.740Z,20
2017-09-17T11:56:24.826Z,20
2017-09-17T11:57:32.918Z,20
2017-09-17T11:58:41.008Z,16
2017-09-17T11:59:49.090Z,20
2017-09-17T12:00:57.176Z,16
2017-09-17T12:02:05.260Z,20
2017-09-17T12:03:13.345Z,16
2017-09-17T12:04:21.429Z,16
2017-09-17T12:05:29.515Z,20
2017-09-17T12:06:37.602Z,20
2017-09-17T12:07:45.697Z,20
2017-09-17T12:08:53.778Z,16
2017-09-17T12:10:01.870Z,20
2017-09-17T12:11:09.957Z,16
2017-09-17T12:12:18.063Z,20
2017-09-17T12:13:26.145Z,16
2017-09-17T12:14:34.231Z,16
2017-09-17T12:15:42.316Z,16
2017-09-17T12:16:50.404Z,16
2017-09-17T12:17:58.498Z,12
2017-09-17T12:19:06.571Z,16
2017-09-17T12:20:14.675Z,16
2017-09-17T12:21:22.742Z,12
2017-09-17T12:22:30.828Z,16
2017-09-17T12:23:38.919Z,12
2017-09-17T12:24:46.999Z,16
2017-09-17T12:25:55.092Z,12
2017-09-17T12:27:03.179Z,4
2017-09-17T12:28:11.271Z,8
2017-09-17T12:29:19.349Z,16
2017-09-17T12:30:27.436Z,12
2017-09-17T12:31:35.523Z,12
2017-09-17T12:32:43.609Z,16
2017-09-17T12:33:51.695Z,12
2017-09-17T12:34:59.779Z,12
2017-09-17T12:36:07.861Z,12
2017-09-17T12:37:15.948Z,16
2017-09-17T12:38:24.038Z,12
2017-09-17T12:39:32.122Z,12
2017-09-17T12:40:40.220Z,12
2017-09-17T12:41:48.293Z,12
2017-09-17T12:42:56.474Z,12
2017-09-17T12:44:04.466Z,12
2017-09-17T12:45:12.583Z,12
2017-09-17T12:46:20.653Z,12
2017-09-17T12:47:28.808Z,12
2017-09-17T12:48:36.883Z,12
2017-09-17T12:49:44.967Z,12
2017-09-17T12:50:53.054Z,12
2017-09-17T12:52:01.147Z,12
2017-09-17T12:53:09.227Z,12
2017-09-17T12:54:17.314Z,12
2017-09-17T12:55:25.401Z,12
2017-09-17T12:56:33.484Z,12
2017-09-17T12:57:41.586Z,12
2017-09-17T12:58:49.659Z,12
2017-09-17T12:59:57.739Z,12
2017-09-17T13:01:05.833Z,12
2017-09-17T13:02:13.912Z,12
2017-09-17T13:03:22.001Z,12
2017-09-17T13:04:30.089Z,12
2017-09-17T13:05:38.174Z,12
2017-09-17T13:06:46.258Z,12
2017-09-17T13:07:54.341Z,12
2017-09-17T13:09:02.433Z,12
2017-09-17T13:10:10.515Z,12
2017-09-17T13:11:18.617Z,12
2017-09-17T13:12:26.688Z,16
2017-09-17T13:13:34.775Z,12
2017-09-17T13:14:42.862Z,16
2017-09-17T13:15:50.950Z,12
2017-09-17T13:16:59.032Z,16
2017-09-17T13:18:07.118Z,12
2017-09-17T13:19:15.204Z,12
2017-09-17T13:20:23.289Z,12
2017-09-17T13:21:31.377Z,12
2017-09-17T13:22:39.463Z,12
2017-09-17T13:23:47.558Z,12
2017-09-17T13:24:55.636Z,16
2017-09-17T13:26:03.724Z,16
2017-09-17T13:27:11.812Z,12
2017-09-17T13:28:19.899Z,12
2017-09-17T13:29:27.980Z,8
2017-09-17T13:30:36.073Z,8
2017-09-17T13:31:44.159Z,8
2017-09-17T13:32:52.245Z,12
2017-09-17T13:34:00.329Z,8
2017-09-17T13:35:08.414Z,8
2017-09-17T13:36:16.502Z,8
2017-09-17T13:37:24.600Z,8
2017-09-17T13:38:32.703Z,4
2017-09-17T13:39:40.819Z,8
2017-09-17T13:40:48.855Z,8
2017-09-17T13:41:56.940Z,8
2017-09-17T13:43:05.026Z,8
2017-09-17T13:44:13.113Z,8
2017-09-17T13:45:21.199Z,8
2017-09-17T13:46:29.287Z,8
2017-09-17T13:47:37.371Z,8
2017-09-17T13:48:45.458Z,8
2017-09-17T13:49:53.723Z,4
2017-09-17T13:51:01.809Z,8
2017-09-17T13:52:09.899Z,8
2017-09-17T13:53:17.983Z,8
2017-09-17T13:54:26.068Z,8
2017-09-17T13:55:34.157Z,4
2017-09-17T13:56:42.243Z,8
2017-09-17T13:57:50.326Z,8
2017-09-17T13:58:58.417Z,8
2017-09-17T14:00:06.513Z,8
2017-09-17T14:01:14.585Z,8
2017-09-17T14:02:22.693Z,8
2017-09-17T14:03:30.757Z,8
2017-09-17T14:04:38.862Z,8
2017-09-17T14:05:46.936Z,12
2017-09-17T14:06:55.017Z,12
2017-09-17T14:08:03.107Z,8
2017-09-17T14:09:11.197Z,12
2017-09-17T14:10:19.277Z,8
2017-09-17T14:11:27.362Z,12
2017-09-17T14:12:35.546Z,12
2017-09-17T14:13:43.536Z,12
2017-09-17T14:14:51.623Z,8
2017-09-17T14:15:59.713Z,12
2017-09-17T14:17:07.798Z,8
2017-09-17T14:18:15.881Z,8
2017-09-17T14:19:23.978Z,8
2017-09-17T14:20:32.062Z,8
2017-09-17T14:21:40.148Z,8
2017-09-17T14:22:48.236Z,8
2017-09-17T14:23:56.320Z,8
2017-09-17T14:25:04.407Z,12
2017-09-17T14:26:12.491Z,8
2017-09-17T14:27:20.582Z,8
2017-09-17T14:28:28.670Z,12
2017-09-17T14:29:36.757Z,8
2017-09-17T14:30:44.843Z,8
2017-09-17T14:31:52.929Z,8
2017-09-17T14:33:01.015Z,8
2017-09-17T14:34:09.102Z,8
2017-09-17T14:35:17.185Z,4
2017-09-17T14:36:25.272Z,4
2017-09-17T14:37:33.359Z,4
2017-09-17T14:38:41.458Z,4
2017-09-17T14:39:49.544Z,4
2017-09-17T14:40:57.652Z,4
2017-09-17T14:42:05.724Z,4
2017-09-17T14:43:13.814Z,4
2017-09-17T14:44:21.895Z,4
2017-09-17T14:45:29.981Z,4
2017-09-17T14:46:38.068Z,4
2017-09-17T14:47:46.160Z,4
2017-09-17T14:48:54.239Z,4
2017-09-17T14:50:02.327Z,4
2017-09-17T14:51:10.411Z,4
2017-09-17T14:52:18.498Z,4
2017-09-17T14:53:26.584Z,4
2017-09-17T14:54:34.721Z,4
2017-09-17T14:55:42.761Z,0
2017-09-17T14:56:50.847Z,4
2017-09-17T14:57:58.933Z,0
2017-09-17T14:59:07.019Z,4
2017-09-17T15:00:15.104Z,4
2017-09-17T15:01:23.194Z,0
2017-09-17T15:02:31.278Z,4
2017-09-17T15:03:39.366Z,0
2017-09-17T15:04:47.452Z,4
2017-09-17T15:05:55.542Z,0
2017-09-17T15:07:03.626Z,4
2017-09-17T15:08:11.710Z,4
2017-09-17T15:09:19.796Z,4
2017-09-17T15:10:27.881Z,4
2017-09-17T15:11:35.968Z,8
2017-09-17T15:12:44.054Z,8
2017-09-17T15:13:52.142Z,4
2017-09-17T15:15:00.239Z,8
2017-09-17T15:16:08.314Z,8
2017-09-17T15:17:16.399Z,4
2017-09-17T15:18:24.486Z,4
2017-09-17T15:19:32.572Z,8
2017-09-17T15:20:40.657Z,8
2017-09-17T15:21:48.758Z,8
2017-09-17T15:22:56.833Z,8
2017-09-17T15:24:04.925Z,8
2017-09-17T15:25:13.023Z,4
2017-09-17T15:26:21.091Z,8
2017-09-17T15:27:29.179Z,8
2017-09-17T15:28:37.264Z,8
2017-09-17T15:29:45.351Z,8
2017-09-17T15:30:53.437Z,4
2017-09-17T15:32:01.528Z,4
2017-09-17T15:33:09.608Z,4
2017-09-17T15:34:17.698Z,8
2017-09-17T15:35:25.788Z,8
2017-09-17T15:36:33.872Z,8
2017-09-17T15:37:41.954Z,8
2017-09-17T15:38:50.041Z,8
2017-09-17T15:39:58.125Z,8
2017-09-17T15:41:06.214Z,8
2017-09-17T15:42:14.298Z,8
2017-09-17T15:43:22.384Z,4
2017-09-17T15:44:31.219Z,4
2017-09-17T15:45:38.712Z,4
2017-09-17T15:46:46.651Z,8
2017-09-17T15:47:54.783Z,4
2017-09-17T15:49:02.900Z,4
2017-09-17T15:50:10.901Z,8
2017-09-17T15:51:18.995Z,4
2017-09-17T15:52:27.403Z,4
2017-09-17T15:53:35.166Z,4
2017-09-17T15:54:43.355Z,4
2017-09-17T15:55:51.339Z,4
2017-09-17T15:56:59.662Z,4
2017-09-17T15:58:07.511Z,4
2017-09-17T15:59:15.601Z,8
2017-09-17T16:00:23.687Z,4
2017-09-17T16:01:31.985Z,4
2017-09-17T16:02:40.227Z,4
2017-09-17T16:03:47.948Z,4
2017-09-17T16:04:56.035Z,4
2017-09-17T16:06:04.473Z,4
2017-09-17T16:07:12.206Z,4
2017-09-17T16:08:20.699Z,4
2017-09-17T16:09:28.386Z,4
2017-09-17T16:10:37.054Z,4
2017-09-17T16:11:44.557Z,4
2017-09-17T16:12:53.139Z,4
2017-09-17T16:14:00.724Z,4
2017-09-17T16:15:08.814Z,4
2017-09-17T16:16:16.927Z,4
2017-09-17T16:17:24.981Z,4
2017-09-17T16:18:33.077Z,4
2017-09-17T16:19:41.208Z,4
2017-09-17T16:20:49.254Z,0
2017-09-17T16:21:57.449Z,4
2017-09-17T16:23:05.484Z,4
2017-09-17T16:24:13.502Z,0
2017-09-17T16:25:21.727Z,4
2017-09-17T16:26:30.039Z,4
2017-09-17T16:27:37.756Z,4
2017-09-17T16:28:45.846Z,4
2017-09-17T16:29:53.934Z,0
2017-09-17T16:31:02.016Z,0
2017-09-17T16:32:10.356Z,4
2017-09-17T16:33:18.839Z,4
2017-09-17T16:34:26.311Z,4
2017-09-17T16:35:34.566Z,0